sensor_id;sensor_type;location;lat;lon;timestamp;temperature;humidity
3919;DHT22;1974;48.670;8.994;2024-02-16T00:01:49;10.30;99.90
3919;DHT22;1974;48.670;8.994;2024-02-16T00:04:16;10.40;99.90
3919;DHT22;1974;48.670;8.994;2024-02-16T00:06:42;10.40;99.90
3919;DHT22;1974;48.670;8.994;2024-02-16T00:09:09;10.40;99.90
3919;DHT22;1974;48.670;8.994;2024-02-16T00:11:36;10.40;99.90
3919;DHT22;1974;48.670;8.994;2024-02-16T00:14:03;10.50;99.90
3919;DHT22;1974;48.670;8.994;2024-02-16T00:16:31;10.50;99.90
3919;DHT22;1974;48.670;8.994;2024-02-16T00:18:58;10.60;99.90
3919;DHT22;1974;48.670;8.994;2024-02-16T00:21:24;10.60;99.90
3919;DHT22;1974;48.670;8.994;2024-02-16T00:23:51;10.70;99.90
3919;DHT22;1974;48.670;8.994;2024-02-16T00:26:18;10.70;99.90
3919;DHT22;1974;48.670;8.994;2024-02-16T00:28:45;10.70;99.90
3919;DHT22;1974;48.670;8.994;2024-02-16T00:31:11;10.80;99.90
3919;DHT22;1974;48.670;8.994;2024-02-16T00:33:39;10.80;99.90
3919;DHT22;1974;48.670;8.994;2024-02-16T00:36:07;10.80;99.90
3919;DHT22;1974;48.670;8.994;2024-02-16T00:38:35;10.80;99.90
3919;DHT22;1974;48.670;8.994;2024-02-16T00:41:02;10.80;99.90
3919;DHT22;1974;48.670;8.994;2024-02-16T00:43:30;10.80;99.90
3919;DHT22;1974;48.670;8.994;2024-02-16T00:45:56;10.80;99.90
3919;DHT22;1974;48.670;8.994;2024-02-16T00:48:23;10.80;99.90
3919;DHT22;1974;48.670;8.994;2024-02-16T00:50:52;10.80;99.90
3919;DHT22;1974;48.670;8.994;2024-02-16T00:53:18;10.80;99.90
3919;DHT22;1974;48.670;8.994;2024-02-16T00:55:45;10.80;99.90
3919;DHT22;1974;48.670;8.994;2024-02-16T00:58:12;10.80;99.90
3919;DHT22;1974;48.670;8.994;2024-02-16T01:00:39;10.80;99.90
3919;DHT22;1974;48.670;8.994;2024-02-16T01:03:06;10.80;99.90
3919;DHT22;1974;48.670;8.994;2024-02-16T01:05:32;10.80;99.90
3919;DHT22;1974;48.670;8.994;2024-02-16T01:08:00;10.80;99.90
3919;DHT22;1974;48.670;8.994;2024-02-16T01:10:27;10.80;99.90
3919;DHT22;1974;48.670;8.994;2024-02-16T01:12:54;10.90;99.90
3919;DHT22;1974;48.670;8.994;2024-02-16T01:15:21;10.90;99.90
3919;DHT22;1974;48.670;8.994;2024-02-16T01:17:48;10.90;99.90
3919;DHT22;1974;48.670;8.994;2024-02-16T01:20:15;10.90;99.90
3919;DHT22;1974;48.670;8.994;2024-02-16T01:22:42;10.90;99.90
3919;DHT22;1974;48.670;8.994;2024-02-16T01:25:11;10.90;99.90
3919;DHT22;1974;48.670;8.994;2024-02-16T01:27:38;11.00;99.90
3919;DHT22;1974;48.670;8.994;2024-02-16T01:30:07;11.00;99.90
3919;DHT22;1974;48.670;8.994;2024-02-16T01:32:34;11.10;99.90
3919;DHT22;1974;48.670;8.994;2024-02-16T01:35:01;11.00;99.90
3919;DHT22;1974;48.670;8.994;2024-02-16T01:37:27;11.00;99.90
3919;DHT22;1974;48.670;8.994;2024-02-16T01:39:54;10.90;99.90
3919;DHT22;1974;48.670;8.994;2024-02-16T01:42:22;10.80;99.90
3919;DHT22;1974;48.670;8.994;2024-02-16T01:44:49;10.80;99.90
3919;DHT22;1974;48.670;8.994;2024-02-16T01:47:16;10.80;99.90
3919;DHT22;1974;48.670;8.994;2024-02-16T01:49:45;10.80;99.90
3919;DHT22;1974;48.670;8.994;2024-02-16T01:52:11;10.70;99.90
3919;DHT22;1974;48.670;8.994;2024-02-16T01:54:38;10.70;99.90
3919;DHT22;1974;48.670;8.994;2024-02-16T01:57:05;10.70;99.90
3919;DHT22;1974;48.670;8.994;2024-02-16T01:59:34;10.80;99.90
3919;DHT22;1974;48.670;8.994;2024-02-16T02:02:02;10.80;99.90
3919;DHT22;1974;48.670;8.994;2024-02-16T02:04:29;10.80;99.90
3919;DHT22;1974;48.670;8.994;2024-02-16T02:06:56;10.80;99.90
3919;DHT22;1974;48.670;8.994;2024-02-16T02:09:22;10.80;99.90
3919;DHT22;1974;48.670;8.994;2024-02-16T02:11:49;10.80;99.90
3919;DHT22;1974;48.670;8.994;2024-02-16T02:14:17;10.80;99.90
3919;DHT22;1974;48.670;8.994;2024-02-16T02:16:45;10.80;99.90
3919;DHT22;1974;48.670;8.994;2024-02-16T02:19:12;10.80;99.90
3919;DHT22;1974;48.670;8.994;2024-02-16T02:21:38;10.80;99.90
3919;DHT22;1974;48.670;8.994;2024-02-16T02:24:07;10.90;99.90
3919;DHT22;1974;48.670;8.994;2024-02-16T02:26:33;10.90;99.90
3919;DHT22;1974;48.670;8.994;2024-02-16T02:29:00;10.90;99.90
3919;DHT22;1974;48.670;8.994;2024-02-16T02:31:27;10.90;99.90
3919;DHT22;1974;48.670;8.994;2024-02-16T02:33:54;10.90;99.90
3919;DHT22;1974;48.670;8.994;2024-02-16T02:36:20;10.90;99.90
3919;DHT22;1974;48.670;8.994;2024-02-16T02:38:47;10.90;99.90
3919;DHT22;1974;48.670;8.994;2024-02-16T02:41:16;11.00;99.90
3919;DHT22;1974;48.670;8.994;2024-02-16T02:43:45;11.00;99.90
3919;DHT22;1974;48.670;8.994;2024-02-16T02:46:14;11.00;99.90
3919;DHT22;1974;48.670;8.994;2024-02-16T02:48:42;11.00;99.90
3919;DHT22;1974;48.670;8.994;2024-02-16T02:51:09;11.00;99.90
3919;DHT22;1974;48.670;8.994;2024-02-16T02:53:36;11.00;99.90
3919;DHT22;1974;48.670;8.994;2024-02-16T02:56:04;11.00;99.90
3919;DHT22;1974;48.670;8.994;2024-02-16T02:58:32;11.00;99.90
3919;DHT22;1974;48.670;8.994;2024-02-16T03:00:59;11.00;99.90
3919;DHT22;1974;48.670;8.994;2024-02-16T03:03:26;11.00;99.90
3919;DHT22;1974;48.670;8.994;2024-02-16T03:05:52;10.90;99.90
3919;DHT22;1974;48.670;8.994;2024-02-16T03:08:19;10.90;99.90
3919;DHT22;1974;48.670;8.994;2024-02-16T03:10:46;10.90;99.90
3919;DHT22;1974;48.670;8.994;2024-02-16T03:13:13;10.90;99.90
3919;DHT22;1974;48.670;8.994;2024-02-16T03:15:44;10.90;99.90
3919;DHT22;1974;48.670;8.994;2024-02-16T03:18:11;10.90;99.90
3919;DHT22;1974;48.670;8.994;2024-02-16T03:20:39;10.90;99.90
3919;DHT22;1974;48.670;8.994;2024-02-16T03:23:05;11.00;99.90
3919;DHT22;1974;48.670;8.994;2024-02-16T03:25:32;11.00;99.90
3919;DHT22;1974;48.670;8.994;2024-02-16T03:27:59;11.00;99.90
3919;DHT22;1974;48.670;8.994;2024-02-16T03:30:26;10.90;99.90
3919;DHT22;1974;48.670;8.994;2024-02-16T03:32:54;10.90;99.90
3919;DHT22;1974;48.670;8.994;2024-02-16T03:35:21;10.90;99.90
3919;DHT22;1974;48.670;8.994;2024-02-16T03:37:48;10.90;99.90
3919;DHT22;1974;48.670;8.994;2024-02-16T03:40:14;10.80;99.90
3919;DHT22;1974;48.670;8.994;2024-02-16T03:42:42;10.80;99.90
3919;DHT22;1974;48.670;8.994;2024-02-16T03:45:10;10.80;99.90
3919;DHT22;1974;48.670;8.994;2024-02-16T03:47:37;10.80;99.90
3919;DHT22;1974;48.670;8.994;2024-02-16T03:50:08;10.80;99.90
3919;DHT22;1974;48.670;8.994;2024-02-16T03:52:35;10.80;99.90
3919;DHT22;1974;48.670;8.994;2024-02-16T03:55:02;10.80;99.90
3919;DHT22;1974;48.670;8.994;2024-02-16T03:57:30;10.80;99.90
3919;DHT22;1974;48.670;8.994;2024-02-16T03:59:57;10.80;99.90
3919;DHT22;1974;48.670;8.994;2024-02-16T04:02:24;10.80;99.90
3919;DHT22;1974;48.670;8.994;2024-02-16T04:04:51;10.80;99.90
3919;DHT22;1974;48.670;8.994;2024-02-16T04:07:19;10.80;99.90
3919;DHT22;1974;48.670;8.994;2024-02-16T04:09:46;10.70;99.90
3919;DHT22;1974;48.670;8.994;2024-02-16T04:12:12;10.70;99.90
3919;DHT22;1974;48.670;8.994;2024-02-16T04:14:39;10.60;99.90
3919;DHT22;1974;48.670;8.994;2024-02-16T04:17:07;10.70;99.90
3919;DHT22;1974;48.670;8.994;2024-02-16T04:19:34;10.70;99.90
3919;DHT22;1974;48.670;8.994;2024-02-16T04:22:02;10.70;99.90
3919;DHT22;1974;48.670;8.994;2024-02-16T04:24:31;10.70;99.90
3919;DHT22;1974;48.670;8.994;2024-02-16T04:26:58;10.60;99.90
3919;DHT22;1974;48.670;8.994;2024-02-16T04:29:25;10.60;99.90
3919;DHT22;1974;48.670;8.994;2024-02-16T04:31:51;10.60;99.90
3919;DHT22;1974;48.670;8.994;2024-02-16T04:34:18;10.60;99.90
3919;DHT22;1974;48.670;8.994;2024-02-16T04:36:45;10.60;99.90
3919;DHT22;1974;48.670;8.994;2024-02-16T04:39:11;10.70;99.90
3919;DHT22;1974;48.670;8.994;2024-02-16T04:41:41;10.70;99.90
3919;DHT22;1974;48.670;8.994;2024-02-16T04:44:08;10.60;99.90
3919;DHT22;1974;48.670;8.994;2024-02-16T04:46:35;10.60;99.90
3919;DHT22;1974;48.670;8.994;2024-02-16T04:49:01;10.60;99.90
3919;DHT22;1974;48.670;8.994;2024-02-16T04:51:28;10.60;99.90
3919;DHT22;1974;48.670;8.994;2024-02-16T04:53:55;10.60;99.90
3919;DHT22;1974;48.670;8.994;2024-02-16T04:56:22;10.60;99.90
3919;DHT22;1974;48.670;8.994;2024-02-16T04:58:50;10.60;99.90
3919;DHT22;1974;48.670;8.994;2024-02-16T05:01:17;10.50;99.90
3919;DHT22;1974;48.670;8.994;2024-02-16T05:03:44;10.50;99.90
3919;DHT22;1974;48.670;8.994;2024-02-16T05:06:10;10.50;99.90
3919;DHT22;1974;48.670;8.994;2024-02-16T05:08:37;10.50;99.90
3919;DHT22;1974;48.670;8.994;2024-02-16T05:11:04;10.50;99.90
3919;DHT22;1974;48.670;8.994;2024-02-16T05:13:33;10.50;99.90
3919;DHT22;1974;48.670;8.994;2024-02-16T05:16:01;10.40;99.90
3919;DHT22;1974;48.670;8.994;2024-02-16T05:18:27;10.50;99.90
3919;DHT22;1974;48.670;8.994;2024-02-16T05:20:54;10.50;99.90
3919;DHT22;1974;48.670;8.994;2024-02-16T05:23:21;10.50;99.90
3919;DHT22;1974;48.670;8.994;2024-02-16T05:25:48;10.40;99.90
3919;DHT22;1974;48.670;8.994;2024-02-16T05:28:15;10.40;99.90
3919;DHT22;1974;48.670;8.994;2024-02-16T05:30:42;10.40;99.90
3919;DHT22;1974;48.670;8.994;2024-02-16T05:33:11;10.40;99.90
3919;DHT22;1974;48.670;8.994;2024-02-16T05:35:39;10.40;99.90
3919;DHT22;1974;48.670;8.994;2024-02-16T05:38:06;10.30;99.90
3919;DHT22;1974;48.670;8.994;2024-02-16T05:40:46;10.30;99.90
3919;DHT22;1974;48.670;8.994;2024-02-16T05:43:19;10.30;99.90
3919;DHT22;1974;48.670;8.994;2024-02-16T05:45:45;10.30;99.90
3919;DHT22;1974;48.670;8.994;2024-02-16T05:48:13;10.30;99.90
3919;DHT22;1974;48.670;8.994;2024-02-16T05:50:40;10.30;99.90
3919;DHT22;1974;48.670;8.994;2024-02-16T05:53:08;10.20;99.90
3919;DHT22;1974;48.670;8.994;2024-02-16T05:55:36;10.20;99.90
3919;DHT22;1974;48.670;8.994;2024-02-16T05:58:02;10.20;99.90
3919;DHT22;1974;48.670;8.994;2024-02-16T06:00:31;10.10;99.90
3919;DHT22;1974;48.670;8.994;2024-02-16T06:02:58;10.10;99.90
3919;DHT22;1974;48.670;8.994;2024-02-16T06:05:26;10.10;99.90
3919;DHT22;1974;48.670;8.994;2024-02-16T06:07:53;10.10;99.90
3919;DHT22;1974;48.670;8.994;2024-02-16T06:10:22;10.10;99.90
3919;DHT22;1974;48.670;8.994;2024-02-16T06:12:48;10.00;99.90
3919;DHT22;1974;48.670;8.994;2024-02-16T06:15:15;10.00;99.90
3919;DHT22;1974;48.670;8.994;2024-02-16T06:17:42;10.00;99.90
3919;DHT22;1974;48.670;8.994;2024-02-16T06:20:09;10.00;99.90
3919;DHT22;1974;48.670;8.994;2024-02-16T06:22:38;10.00;99.90
3919;DHT22;1974;48.670;8.994;2024-02-16T06:25:06;9.90;99.90
3919;DHT22;1974;48.670;8.994;2024-02-16T06:27:33;9.90;99.90
3919;DHT22;1974;48.670;8.994;2024-02-16T06:30:00;10.00;99.90
3919;DHT22;1974;48.670;8.994;2024-02-16T06:32:27;9.90;99.90
3919;DHT22;1974;48.670;8.994;2024-02-16T06:34:54;10.00;99.90
3919;DHT22;1974;48.670;8.994;2024-02-16T06:37:21;9.90;99.90
3919;DHT22;1974;48.670;8.994;2024-02-16T06:39:49;10.00;99.90
3919;DHT22;1974;48.670;8.994;2024-02-16T06:42:15;10.00;99.90
3919;DHT22;1974;48.670;8.994;2024-02-16T06:44:42;10.00;99.90
3919;DHT22;1974;48.670;8.994;2024-02-16T06:47:09;9.90;99.90
3919;DHT22;1974;48.670;8.994;2024-02-16T06:49:36;10.00;99.90
3919;DHT22;1974;48.670;8.994;2024-02-16T06:52:04;10.00;99.90
3919;DHT22;1974;48.670;8.994;2024-02-16T06:54:31;10.00;99.90
3919;DHT22;1974;48.670;8.994;2024-02-16T06:56:59;10.00;99.90
3919;DHT22;1974;48.670;8.994;2024-02-16T06:59:26;10.00;99.90
3919;DHT22;1974;48.670;8.994;2024-02-16T07:01:53;10.00;99.90
3919;DHT22;1974;48.670;8.994;2024-02-16T07:04:20;10.00;99.90
3919;DHT22;1974;48.670;8.994;2024-02-16T07:06:46;10.00;99.90
3919;DHT22;1974;48.670;8.994;2024-02-16T07:09:13;10.10;99.90
3919;DHT22;1974;48.670;8.994;2024-02-16T07:11:40;10.00;99.90
3919;DHT22;1974;48.670;8.994;2024-02-16T07:14:09;10.10;99.90
3919;DHT22;1974;48.670;8.994;2024-02-16T07:16:36;10.10;99.90
3919;DHT22;1974;48.670;8.994;2024-02-16T07:19:02;10.10;99.90
3919;DHT22;1974;48.670;8.994;2024-02-16T07:21:30;10.20;99.90
3919;DHT22;1974;48.670;8.994;2024-02-16T07:23:57;10.20;99.90
3919;DHT22;1974;48.670;8.994;2024-02-16T07:26:24;10.20;99.90
3919;DHT22;1974;48.670;8.994;2024-02-16T07:28:54;10.20;99.90
3919;DHT22;1974;48.670;8.994;2024-02-16T07:31:22;10.20;99.90
3919;DHT22;1974;48.670;8.994;2024-02-16T07:33:49;10.30;99.90
3919;DHT22;1974;48.670;8.994;2024-02-16T07:36:16;10.40;99.90
3919;DHT22;1974;48.670;8.994;2024-02-16T07:38:44;10.40;99.90
3919;DHT22;1974;48.670;8.994;2024-02-16T07:41:11;10.50;99.90
3919;DHT22;1974;48.670;8.994;2024-02-16T07:43:38;10.60;99.90
3919;DHT22;1974;48.670;8.994;2024-02-16T07:46:05;10.60;99.90
3919;DHT22;1974;48.670;8.994;2024-02-16T07:48:35;10.70;99.90
3919;DHT22;1974;48.670;8.994;2024-02-16T07:51:01;10.70;99.90
3919;DHT22;1974;48.670;8.994;2024-02-16T07:53:29;10.80;99.90
3919;DHT22;1974;48.670;8.994;2024-02-16T07:55:56;10.90;99.90
3919;DHT22;1974;48.670;8.994;2024-02-16T07:58:23;11.00;99.90
3919;DHT22;1974;48.670;8.994;2024-02-16T08:00:50;11.10;99.90
3919;DHT22;1974;48.670;8.994;2024-02-16T08:03:17;11.10;99.90
3919;DHT22;1974;48.670;8.994;2024-02-16T08:05:46;11.20;99.90
3919;DHT22;1974;48.670;8.994;2024-02-16T08:08:12;11.30;99.90
3919;DHT22;1974;48.670;8.994;2024-02-16T08:10:39;11.40;99.90
3919;DHT22;1974;48.670;8.994;2024-02-16T08:13:06;11.50;99.90
3919;DHT22;1974;48.670;8.994;2024-02-16T08:15:33;11.50;99.90
3919;DHT22;1974;48.670;8.994;2024-02-16T08:18:00;11.50;99.90
3919;DHT22;1974;48.670;8.994;2024-02-16T08:20:26;11.60;99.90
3919;DHT22;1974;48.670;8.994;2024-02-16T08:22:54;11.60;99.90
3919;DHT22;1974;48.670;8.994;2024-02-16T08:25:21;11.60;99.90
3919;DHT22;1974;48.670;8.994;2024-02-16T08:27:48;11.70;99.90
3919;DHT22;1974;48.670;8.994;2024-02-16T08:30:16;11.80;99.90
3919;DHT22;1974;48.670;8.994;2024-02-16T08:32:42;11.90;99.90
3919;DHT22;1974;48.670;8.994;2024-02-16T08:35:10;12.00;99.90
3919;DHT22;1974;48.670;8.994;2024-02-16T08:37:39;12.20;99.90
3919;DHT22;1974;48.670;8.994;2024-02-16T08:40:08;12.40;99.90
3919;DHT22;1974;48.670;8.994;2024-02-16T08:42:39;12.60;99.90
3919;DHT22;1974;48.670;8.994;2024-02-16T08:45:07;12.70;99.90
3919;DHT22;1974;48.670;8.994;2024-02-16T08:47:34;12.90;99.90
3919;DHT22;1974;48.670;8.994;2024-02-16T08:50:00;12.90;99.90
3919;DHT22;1974;48.670;8.994;2024-02-16T08:52:28;13.10;99.90
3919;DHT22;1974;48.670;8.994;2024-02-16T08:54:54;13.20;99.90
3919;DHT22;1974;48.670;8.994;2024-02-16T08:57:22;13.40;99.90
3919;DHT22;1974;48.670;8.994;2024-02-16T08:59:49;13.50;99.90
3919;DHT22;1974;48.670;8.994;2024-02-16T09:02:16;13.50;99.90
3919;DHT22;1974;48.670;8.994;2024-02-16T09:04:43;13.60;99.90
3919;DHT22;1974;48.670;8.994;2024-02-16T09:07:11;13.80;99.90
3919;DHT22;1974;48.670;8.994;2024-02-16T09:09:38;14.30;99.90
3919;DHT22;1974;48.670;8.994;2024-02-16T09:12:09;14.70;99.90
3919;DHT22;1974;48.670;8.994;2024-02-16T09:14:40;15.20;99.90
3919;DHT22;1974;48.670;8.994;2024-02-16T09:17:06;15.20;99.90
3919;DHT22;1974;48.670;8.994;2024-02-16T09:19:33;15.00;99.90
3919;DHT22;1974;48.670;8.994;2024-02-16T09:22:00;15.00;99.90
3919;DHT22;1974;48.670;8.994;2024-02-16T09:24:28;15.30;99.90
3919;DHT22;1974;48.670;8.994;2024-02-16T09:26:55;15.50;99.90
3919;DHT22;1974;48.670;8.994;2024-02-16T09:29:22;16.00;99.90
3919;DHT22;1974;48.670;8.994;2024-02-16T09:31:50;16.90;99.90
3919;DHT22;1974;48.670;8.994;2024-02-16T09:34:17;17.50;99.90
3919;DHT22;1974;48.670;8.994;2024-02-16T09:36:44;17.70;99.90
3919;DHT22;1974;48.670;8.994;2024-02-16T09:39:10;17.40;99.90
3919;DHT22;1974;48.670;8.994;2024-02-16T09:41:41;17.10;99.90
3919;DHT22;1974;48.670;8.994;2024-02-16T09:44:08;16.90;99.90
3919;DHT22;1974;48.670;8.994;2024-02-16T09:46:35;16.70;99.90
3919;DHT22;1974;48.670;8.994;2024-02-16T09:49:04;16.70;99.90
3919;DHT22;1974;48.670;8.994;2024-02-16T09:51:31;16.60;99.90
3919;DHT22;1974;48.670;8.994;2024-02-16T09:53:57;16.80;99.90
3919;DHT22;1974;48.670;8.994;2024-02-16T09:56:26;16.90;99.90
3919;DHT22;1974;48.670;8.994;2024-02-16T09:58:53;17.10;99.90
3919;DHT22;1974;48.670;8.994;2024-02-16T10:01:21;17.40;99.90
3919;DHT22;1974;48.670;8.994;2024-02-16T10:03:48;17.70;99.90
3919;DHT22;1974;48.670;8.994;2024-02-16T10:06:17;18.10;99.90
3919;DHT22;1974;48.670;8.994;2024-02-16T10:08:49;18.30;99.90
3919;DHT22;1974;48.670;8.994;2024-02-16T10:11:17;18.20;99.90
3919;DHT22;1974;48.670;8.994;2024-02-16T10:13:54;18.10;99.90
3919;DHT22;1974;48.670;8.994;2024-02-16T10:16:22;18.00;99.90
3919;DHT22;1974;48.670;8.994;2024-02-16T10:18:49;17.60;99.90
3919;DHT22;1974;48.670;8.994;2024-02-16T10:21:25;17.40;99.90
3919;DHT22;1974;48.670;8.994;2024-02-16T10:24:02;17.30;99.90
3919;DHT22;1974;48.670;8.994;2024-02-16T10:26:30;17.10;99.90
3919;DHT22;1974;48.670;8.994;2024-02-16T10:28:57;17.00;99.90
3919;DHT22;1974;48.670;8.994;2024-02-16T10:31:25;16.90;99.90
3919;DHT22;1974;48.670;8.994;2024-02-16T10:33:57;16.80;99.90
3919;DHT22;1974;48.670;8.994;2024-02-16T10:36:26;16.80;99.90
3919;DHT22;1974;48.670;8.994;2024-02-16T10:38:54;16.70;99.90
3919;DHT22;1974;48.670;8.994;2024-02-16T10:41:25;16.80;99.90
3919;DHT22;1974;48.670;8.994;2024-02-16T10:43:54;16.60;99.90
3919;DHT22;1974;48.670;8.994;2024-02-16T10:46:21;16.50;99.90
3919;DHT22;1974;48.670;8.994;2024-02-16T10:48:48;16.40;99.90
3919;DHT22;1974;48.670;8.994;2024-02-16T10:51:18;16.30;99.90
3919;DHT22;1974;48.670;8.994;2024-02-16T10:53:48;16.20;99.90
3919;DHT22;1974;48.670;8.994;2024-02-16T10:56:16;16.20;99.90
3919;DHT22;1974;48.670;8.994;2024-02-16T10:58:47;16.00;99.90
3919;DHT22;1974;48.670;8.994;2024-02-16T11:01:15;16.00;99.90
3919;DHT22;1974;48.670;8.994;2024-02-16T11:03:42;16.00;99.90
3919;DHT22;1974;48.670;8.994;2024-02-16T11:06:14;16.00;99.90
3919;DHT22;1974;48.670;8.994;2024-02-16T11:08:42;16.00;99.90
3919;DHT22;1974;48.670;8.994;2024-02-16T11:11:10;16.00;99.90
3919;DHT22;1974;48.670;8.994;2024-02-16T11:13:38;16.00;99.90
3919;DHT22;1974;48.670;8.994;2024-02-16T11:16:07;16.00;99.90
3919;DHT22;1974;48.670;8.994;2024-02-16T11:18:38;16.00;99.90
3919;DHT22;1974;48.670;8.994;2024-02-16T11:21:06;16.00;99.90
3919;DHT22;1974;48.670;8.994;2024-02-16T11:23:35;16.10;99.90
3919;DHT22;1974;48.670;8.994;2024-02-16T11:26:03;16.30;99.90
3919;DHT22;1974;48.670;8.994;2024-02-16T11:28:34;16.40;99.90
3919;DHT22;1974;48.670;8.994;2024-02-16T11:31:01;16.40;99.90
3919;DHT22;1974;48.670;8.994;2024-02-16T11:33:29;16.50;99.90
3919;DHT22;1974;48.670;8.994;2024-02-16T11:35:56;16.90;99.90
3919;DHT22;1974;48.670;8.994;2024-02-16T11:38:24;17.20;99.90
3919;DHT22;1974;48.670;8.994;2024-02-16T11:40:54;17.50;99.90
3919;DHT22;1974;48.670;8.994;2024-02-16T11:43:21;17.70;99.90
3919;DHT22;1974;48.670;8.994;2024-02-16T11:45:50;17.90;99.90
3919;DHT22;1974;48.670;8.994;2024-02-16T11:48:19;18.10;99.90
3919;DHT22;1974;48.670;8.994;2024-02-16T11:50:46;18.20;99.90
3919;DHT22;1974;48.670;8.994;2024-02-16T11:53:18;18.10;99.90
3919;DHT22;1974;48.670;8.994;2024-02-16T11:55:46;18.20;99.90
3919;DHT22;1974;48.670;8.994;2024-02-16T11:58:15;18.20;99.90
3919;DHT22;1974;48.670;8.994;2024-02-16T12:00:42;18.20;99.90
3919;DHT22;1974;48.670;8.994;2024-02-16T12:03:10;18.20;99.90
3919;DHT22;1974;48.670;8.994;2024-02-16T12:05:37;18.30;99.90
3919;DHT22;1974;48.670;8.994;2024-02-16T12:08:06;18.30;99.90
3919;DHT22;1974;48.670;8.994;2024-02-16T12:10:33;18.30;99.90
3919;DHT22;1974;48.670;8.994;2024-02-16T12:13:00;18.40;99.90
3919;DHT22;1974;48.670;8.994;2024-02-16T12:15:26;18.50;99.90
3919;DHT22;1974;48.670;8.994;2024-02-16T12:18:00;18.50;99.90
3919;DHT22;1974;48.670;8.994;2024-02-16T12:20:29;18.60;99.90
3919;DHT22;1974;48.670;8.994;2024-02-16T12:22:56;18.60;99.90
3919;DHT22;1974;48.670;8.994;2024-02-16T12:25:24;18.60;99.90
3919;DHT22;1974;48.670;8.994;2024-02-16T12:27:51;18.60;99.90
3919;DHT22;1974;48.670;8.994;2024-02-16T12:30:18;18.50;99.90
3919;DHT22;1974;48.670;8.994;2024-02-16T12:32:44;18.50;99.90
3919;DHT22;1974;48.670;8.994;2024-02-16T12:35:11;18.40;99.90
3919;DHT22;1974;48.670;8.994;2024-02-16T12:37:39;18.30;99.90
3919;DHT22;1974;48.670;8.994;2024-02-16T12:40:07;18.10;99.90
3919;DHT22;1974;48.670;8.994;2024-02-16T12:42:34;18.10;99.90
3919;DHT22;1974;48.670;8.994;2024-02-16T12:45:00;17.80;99.90
3919;DHT22;1974;48.670;8.994;2024-02-16T12:47:27;17.80;99.90
3919;DHT22;1974;48.670;8.994;2024-02-16T12:49:56;17.80;99.90
3919;DHT22;1974;48.670;8.994;2024-02-16T12:52:23;17.70;99.90
3919;DHT22;1974;48.670;8.994;2024-02-16T12:54:53;17.60;99.90
3919;DHT22;1974;48.670;8.994;2024-02-16T12:57:20;17.30;99.90
3919;DHT22;1974;48.670;8.994;2024-02-16T12:59:47;17.10;99.90
3919;DHT22;1974;48.670;8.994;2024-02-16T13:02:14;17.00;99.90
3919;DHT22;1974;48.670;8.994;2024-02-16T13:04:41;16.90;99.90
3919;DHT22;1974;48.670;8.994;2024-02-16T13:07:08;17.00;99.90
3919;DHT22;1974;48.670;8.994;2024-02-16T13:09:34;17.00;99.90
3919;DHT22;1974;48.670;8.994;2024-02-16T13:12:03;17.10;99.90
3919;DHT22;1974;48.670;8.994;2024-02-16T13:14:30;17.10;99.90
3919;DHT22;1974;48.670;8.994;2024-02-16T13:16:56;17.10;99.90
3919;DHT22;1974;48.670;8.994;2024-02-16T13:19:23;17.10;99.90
3919;DHT22;1974;48.670;8.994;2024-02-16T13:21:50;17.20;99.90
3919;DHT22;1974;48.670;8.994;2024-02-16T13:24:18;17.10;99.90
3919;DHT22;1974;48.670;8.994;2024-02-16T13:26:44;17.00;99.90
3919;DHT22;1974;48.670;8.994;2024-02-16T13:29:12;17.10;99.90
3919;DHT22;1974;48.670;8.994;2024-02-16T13:31:39;17.20;99.90
3919;DHT22;1974;48.670;8.994;2024-02-16T13:34:08;17.10;99.90
3919;DHT22;1974;48.670;8.994;2024-02-16T13:36:34;17.00;99.90
3919;DHT22;1974;48.670;8.994;2024-02-16T13:39:01;17.00;99.90
3919;DHT22;1974;48.670;8.994;2024-02-16T13:41:28;17.00;99.90
3919;DHT22;1974;48.670;8.994;2024-02-16T13:43:55;17.00;99.90
3919;DHT22;1974;48.670;8.994;2024-02-16T13:46:23;17.00;99.90
3919;DHT22;1974;48.670;8.994;2024-02-16T13:48:49;16.90;99.90
3919;DHT22;1974;48.670;8.994;2024-02-16T13:51:16;16.80;99.90
3919;DHT22;1974;48.670;8.994;2024-02-16T13:53:43;16.80;99.90
3919;DHT22;1974;48.670;8.994;2024-02-16T13:56:10;16.70;99.90
3919;DHT22;1974;48.670;8.994;2024-02-16T13:58:36;16.70;99.90
3919;DHT22;1974;48.670;8.994;2024-02-16T14:01:04;16.60;99.90
3919;DHT22;1974;48.670;8.994;2024-02-16T14:03:33;16.70;99.90
3919;DHT22;1974;48.670;8.994;2024-02-16T14:06:02;16.70;99.90
3919;DHT22;1974;48.670;8.994;2024-02-16T14:08:29;16.70;99.90
3919;DHT22;1974;48.670;8.994;2024-02-16T14:10:56;16.90;99.90
3919;DHT22;1974;48.670;8.994;2024-02-16T14:13:23;16.90;99.90
3919;DHT22;1974;48.670;8.994;2024-02-16T14:15:50;16.90;99.90
3919;DHT22;1974;48.670;8.994;2024-02-16T14:18:17;17.00;99.90
3919;DHT22;1974;48.670;8.994;2024-02-16T14:20:45;17.00;99.90
3919;DHT22;1974;48.670;8.994;2024-02-16T14:23:11;17.00;99.90
3919;DHT22;1974;48.670;8.994;2024-02-16T14:25:38;17.00;99.90
3919;DHT22;1974;48.670;8.994;2024-02-16T14:28:06;16.90;99.90
3919;DHT22;1974;48.670;8.994;2024-02-16T14:30:33;16.90;99.90
3919;DHT22;1974;48.670;8.994;2024-02-16T14:32:59;16.90;99.90
3919;DHT22;1974;48.670;8.994;2024-02-16T14:35:26;16.90;99.90
3919;DHT22;1974;48.670;8.994;2024-02-16T14:37:54;16.90;99.90
3919;DHT22;1974;48.670;8.994;2024-02-16T14:40:21;16.90;99.90
3919;DHT22;1974;48.670;8.994;2024-02-16T14:42:48;16.80;99.90
3919;DHT22;1974;48.670;8.994;2024-02-16T14:45:14;16.80;99.90
3919;DHT22;1974;48.670;8.994;2024-02-16T14:47:46;16.70;99.90
3919;DHT22;1974;48.670;8.994;2024-02-16T14:50:13;16.70;99.90
3919;DHT22;1974;48.670;8.994;2024-02-16T14:52:41;16.60;99.90
3919;DHT22;1974;48.670;8.994;2024-02-16T14:55:09;16.40;99.90
3919;DHT22;1974;48.670;8.994;2024-02-16T14:57:36;16.30;99.90
3919;DHT22;1974;48.670;8.994;2024-02-16T15:00:04;16.30;99.90
3919;DHT22;1974;48.670;8.994;2024-02-16T15:02:31;16.30;99.90
3919;DHT22;1974;48.670;8.994;2024-02-16T15:04:57;16.20;99.90
3919;DHT22;1974;48.670;8.994;2024-02-16T15:07:25;16.20;99.90
3919;DHT22;1974;48.670;8.994;2024-02-16T15:09:51;16.10;99.90
3919;DHT22;1974;48.670;8.994;2024-02-16T15:12:19;16.00;99.90
3919;DHT22;1974;48.670;8.994;2024-02-16T15:14:47;16.00;99.90
3919;DHT22;1974;48.670;8.994;2024-02-16T15:17:14;16.00;99.90
3919;DHT22;1974;48.670;8.994;2024-02-16T15:19:40;15.90;99.90
3919;DHT22;1974;48.670;8.994;2024-02-16T15:22:07;15.90;99.90
3919;DHT22;1974;48.670;8.994;2024-02-16T15:24:34;15.80;99.90
3919;DHT22;1974;48.670;8.994;2024-02-16T15:27:01;15.80;99.90
3919;DHT22;1974;48.670;8.994;2024-02-16T15:29:30;15.70;99.90
3919;DHT22;1974;48.670;8.994;2024-02-16T15:31:57;15.70;99.90
3919;DHT22;1974;48.670;8.994;2024-02-16T15:34:25;15.60;99.90
3919;DHT22;1974;48.670;8.994;2024-02-16T15:36:52;15.60;99.90
3919;DHT22;1974;48.670;8.994;2024-02-16T15:39:20;15.50;99.90
3919;DHT22;1974;48.670;8.994;2024-02-16T15:41:47;15.40;99.90
3919;DHT22;1974;48.670;8.994;2024-02-16T15:44:13;15.40;99.90
3919;DHT22;1974;48.670;8.994;2024-02-16T15:46:41;15.30;99.90
3919;DHT22;1974;48.670;8.994;2024-02-16T15:49:09;15.30;99.90
3919;DHT22;1974;48.670;8.994;2024-02-16T15:51:36;15.20;99.90
3919;DHT22;1974;48.670;8.994;2024-02-16T15:54:03;15.20;99.90
3919;DHT22;1974;48.670;8.994;2024-02-16T15:56:30;15.10;99.90
3919;DHT22;1974;48.670;8.994;2024-02-16T15:58:57;15.00;99.90
3919;DHT22;1974;48.670;8.994;2024-02-16T16:01:25;15.10;99.90
3919;DHT22;1974;48.670;8.994;2024-02-16T16:03:54;15.00;99.90